createdAt,value
2022-12-08T00:01:55.149Z,3.90
2022-12-08T00:04:25.455Z,3.90
2022-12-08T00:07:24.037Z,3.90
2022-12-08T00:09:59.265Z,3.90
2022-12-08T00:12:34.052Z,3.90
2022-12-08T00:15:02.725Z,3.90
2022-12-08T00:17:37.861Z,3.90
2022-12-08T00:20:09.120Z,4.00
2022-12-08T00:22:43.869Z,4.00
2022-12-08T00:25:12.067Z,4.00
2022-12-08T00:27:46.924Z,4.00
2022-12-08T00:30:15.511Z,3.90
2022-12-08T00:32:50.073Z,4.00
2022-12-08T00:35:20.128Z,4.00
2022-12-08T00:38:00.490Z,4.10
2022-12-08T00:40:29.217Z,4.00
2022-12-08T00:43:03.925Z,4.00
2022-12-08T00:45:32.114Z,4.00
2022-12-08T00:48:07.077Z,3.90
2022-12-08T00:50:37.231Z,3.90
2022-12-08T00:53:11.933Z,3.90
2022-12-08T00:55:40.447Z,4.00
2022-12-08T00:58:15.120Z,4.00
2022-12-08T01:00:44.299Z,3.90
2022-12-08T01:03:20.178Z,4.00
2022-12-08T01:05:50.147Z,4.00
2022-12-08T01:08:31.949Z,4.00
2022-12-08T01:11:05.076Z,4.00
2022-12-08T01:13:39.963Z,4.00
2022-12-08T01:16:08.633Z,3.90
2022-12-08T01:18:44.927Z,4.00
2022-12-08T01:21:14.975Z,4.00
2022-12-08T01:23:49.892Z,4.00
2022-12-08T01:26:20.184Z,4.00
2022-12-08T01:28:55.935Z,4.00
2022-12-08T01:31:25.165Z,4.00
2022-12-08T01:33:59.999Z,4.00
2022-12-08T01:36:31.648Z,4.00
2022-12-08T01:39:07.942Z,4.00
2022-12-08T01:41:39.616Z,4.00
2022-12-08T01:44:46.910Z,4.00
2022-12-08T01:47:15.161Z,4.00
2022-12-08T01:49:49.929Z,4.00
2022-12-08T01:52:24.750Z,4.00
2022-12-08T01:55:03.008Z,3.90
2022-12-08T01:57:35.480Z,3.90
2022-12-08T02:00:14.139Z,3.90
2022-12-08T02:03:00.965Z,3.80
2022-12-08T02:05:46.165Z,3.80
2022-12-08T02:08:16.273Z,3.80
2022-12-08T02:10:52.063Z,3.80
2022-12-08T02:13:23.484Z,3.80
2022-12-08T02:16:09.100Z,3.70
2022-12-08T02:19:22.428Z,3.80
2022-12-08T02:21:51.671Z,3.70
2022-12-08T02:24:38.111Z,3.80
2022-12-08T02:27:36.876Z,3.80
2022-12-08T02:30:20.910Z,3.80
2022-12-08T02:33:35.543Z,3.80
2022-12-08T02:36:18.018Z,3.70
2022-12-08T02:38:55.187Z,3.70
2022-12-08T02:41:39.971Z,3.70
2022-12-08T02:44:13.909Z,3.70
2022-12-08T02:46:54.018Z,3.70
2022-12-08T02:49:22.517Z,3.70
2022-12-08T02:51:58.997Z,3.70
2022-12-08T02:54:27.520Z,3.60
2022-12-08T02:57:26.016Z,3.60
2022-12-08T03:00:08.054Z,3.60
2022-12-08T03:02:56.045Z,3.60
2022-12-08T03:05:43.608Z,3.50
2022-12-08T03:08:28.036Z,3.50
2022-12-08T03:11:02.104Z,3.50
2022-12-08T03:13:44.319Z,3.50
2022-12-08T03:16:19.188Z,3.50
2022-12-08T03:18:57.187Z,3.50
2022-12-08T03:21:26.075Z,3.50
2022-12-08T03:24:04.992Z,3.50
2022-12-08T03:26:39.959Z,3.40
2022-12-08T03:29:15.192Z,3.40
2022-12-08T03:31:47.864Z,3.50
2022-12-08T03:34:25.211Z,3.50
2022-12-08T03:36:53.837Z,3.40
2022-12-08T03:39:30.054Z,3.40
2022-12-08T03:41:58.464Z,3.40
2022-12-08T03:44:33.032Z,3.30
2022-12-08T03:47:01.274Z,3.30
2022-12-08T03:49:36.034Z,3.20
2022-12-08T03:52:04.282Z,3.20
2022-12-08T03:54:39.989Z,3.20
2022-12-08T03:57:08.567Z,3.10
2022-12-08T03:59:43.158Z,3.10
2022-12-08T04:02:31.204Z,3.20
2022-12-08T04:05:06.041Z,3.10
2022-12-08T04:07:34.294Z,3.10
2022-12-08T04:10:11.091Z,3.10
2022-12-08T04:12:39.492Z,3.10
2022-12-08T04:15:15.099Z,3.10
2022-12-08T04:17:43.412Z,3.00
2022-12-08T04:20:19.301Z,3.00
2022-12-08T04:22:47.674Z,3.00
2022-12-08T04:25:24.139Z,2.90
2022-12-08T04:27:52.966Z,2.90
2022-12-08T04:30:28.105Z,2.90
2022-12-08T04:32:56.613Z,2.90
2022-12-08T04:35:31.083Z,3.10
2022-12-08T04:37:59.714Z,2.90
2022-12-08T04:40:36.277Z,3.00
2022-12-08T04:43:04.591Z,2.90
2022-12-08T04:45:39.268Z,3.00
2022-12-08T04:48:08.295Z,3.00
2022-12-08T04:50:44.178Z,3.00
2022-12-08T04:53:14.182Z,3.00
2022-12-08T04:55:55.160Z,3.00
2022-12-08T04:58:26.260Z,3.00
2022-12-08T05:01:03.400Z,3.00
2022-12-08T05:03:52.171Z,3.00
2022-12-08T05:06:20.531Z,3.00
2022-12-08T05:08:56.285Z,3.00
2022-12-08T05:11:25.957Z,3.10
2022-12-08T05:14:01.308Z,3.10
2022-12-08T05:16:29.962Z,3.00
2022-12-08T05:19:05.102Z,3.10
2022-12-08T05:21:33.477Z,3.10
2022-12-08T05:24:08.234Z,3.10
2022-12-08T05:26:38.094Z,3.10
2022-12-08T05:29:13.108Z,3.10
2022-12-08T05:31:41.486Z,3.10
2022-12-08T05:34:16.052Z,3.20
2022-12-08T05:36:44.553Z,3.20
2022-12-08T05:39:21.127Z,3.20
2022-12-08T05:41:51.037Z,3.10
2022-12-08T05:44:26.090Z,3.20
2022-12-08T05:46:54.975Z,3.20
2022-12-08T05:49:30.350Z,3.20
2022-12-08T05:51:58.857Z,3.20
2022-12-08T05:54:34.206Z,3.20
2022-12-08T05:57:03.860Z,3.20
2022-12-08T05:59:39.336Z,3.20
2022-12-08T06:02:08.834Z,3.10
2022-12-08T06:04:51.213Z,3.20
2022-12-08T06:07:19.781Z,3.10
2022-12-08T06:09:54.218Z,3.10
2022-12-08T06:12:24.573Z,3.20
2022-12-08T06:14:59.136Z,3.20
2022-12-08T06:17:27.512Z,3.20
2022-12-08T06:20:03.570Z,3.20
2022-12-08T06:22:32.488Z,3.20
2022-12-08T06:25:09.967Z,3.20
2022-12-08T06:27:40.179Z,3.20
2022-12-08T06:30:16.258Z,3.20
2022-12-08T06:32:45.211Z,3.20
2022-12-08T06:35:20.175Z,3.20
2022-12-08T06:37:48.591Z,3.20
2022-12-08T06:40:24.137Z,3.20
2022-12-08T06:42:54.268Z,3.20
2022-12-08T06:45:29.276Z,3.20
2022-12-08T06:47:57.765Z,3.10
2022-12-08T06:50:32.179Z,3.10
2022-12-08T06:53:05.079Z,3.10
2022-12-08T06:55:58.892Z,3.10
2022-12-08T06:58:29.526Z,3.10
2022-12-08T07:01:04.217Z,3.20
2022-12-08T07:03:39.640Z,3.10
2022-12-08T07:06:24.387Z,3.10
2022-12-08T07:08:53.063Z,3.10
2022-12-08T07:11:28.389Z,3.10
2022-12-08T07:13:59.058Z,3.10
2022-12-08T07:16:34.445Z,3.10
2022-12-08T07:19:03.044Z,3.10
2022-12-08T07:21:39.212Z,3.10
2022-12-08T07:24:08.616Z,3.10
2022-12-08T07:26:44.413Z,3.10
2022-12-08T07:29:14.680Z,3.10
2022-12-08T07:31:49.451Z,3.00
2022-12-08T07:34:18.047Z,3.10
2022-12-08T07:36:53.433Z,3.10
2022-12-08T07:39:21.867Z,3.10
2022-12-08T07:41:57.404Z,3.10
2022-12-08T07:44:27.350Z,3.10
2022-12-08T07:47:02.340Z,3.20
2022-12-08T07:49:30.627Z,3.10
2022-12-08T07:52:05.240Z,3.10
2022-12-08T07:54:33.715Z,3.00
2022-12-08T07:57:10.328Z,3.10
2022-12-08T07:59:40.696Z,3.00
2022-12-08T08:02:25.249Z,3.00
2022-12-08T08:05:02.242Z,3.00
2022-12-08T08:07:39.280Z,3.00
2022-12-08T08:10:09.013Z,3.00
2022-12-08T08:12:44.256Z,3.00
2022-12-08T08:15:14.490Z,3.00
2022-12-08T08:17:49.457Z,3.00
2022-12-08T08:20:17.900Z,3.00
2022-12-08T08:22:54.325Z,3.00
2022-12-08T08:25:24.330Z,3.00
2022-12-08T08:27:59.446Z,3.10
2022-12-08T08:30:29.443Z,3.10
2022-12-08T08:33:04.275Z,3.10
2022-12-08T08:35:32.430Z,3.10
2022-12-08T08:38:08.255Z,3.10
2022-12-08T08:40:43.273Z,3.10
2022-12-08T08:43:34.348Z,3.10
2022-12-08T08:46:15.272Z,3.10
2022-12-08T08:48:44.246Z,3.30
2022-12-08T08:51:23.600Z,3.10
2022-12-08T08:53:52.090Z,3.20
2022-12-08T08:56:28.363Z,3.10
2022-12-08T08:58:56.658Z,3.20
2022-12-08T09:01:35.518Z,3.20
2022-12-08T09:04:11.490Z,3.20
2022-12-08T09:06:46.352Z,3.20
2022-12-08T09:09:15.137Z,3.20
2022-12-08T09:11:51.485Z,3.20
2022-12-08T09:14:19.955Z,3.30
2022-12-08T09:16:56.323Z,3.30
2022-12-08T09:19:24.678Z,3.30
2022-12-08T09:21:59.403Z,3.30
2022-12-08T09:24:28.119Z,3.30
2022-12-08T09:27:03.508Z,3.30
2022-12-08T09:29:35.959Z,3.40
2022-12-08T09:32:13.378Z,3.40
2022-12-08T09:34:41.714Z,3.40
2022-12-08T09:37:16.584Z,3.40
2022-12-08T09:39:45.394Z,3.40
2022-12-08T09:42:21.336Z,3.50
2022-12-08T09:45:00.334Z,3.50
2022-12-08T09:47:40.326Z,3.50
2022-12-08T09:50:17.045Z,3.40
2022-12-08T09:52:55.370Z,3.50
2022-12-08T09:55:30.094Z,3.50
2022-12-08T09:58:09.390Z,3.50
2022-12-08T10:00:37.726Z,3.50
2022-12-08T10:03:18.615Z,3.50
2022-12-08T10:06:01.756Z,3.50
2022-12-08T10:08:45.684Z,3.60
2022-12-08T10:11:24.900Z,3.60
2022-12-08T10:14:06.356Z,3.60
2022-12-08T10:16:38.420Z,3.60
2022-12-08T10:19:22.384Z,3.70
2022-12-08T10:21:52.531Z,3.70
2022-12-08T10:24:33.533Z,3.70
2022-12-08T10:27:03.871Z,3.70
2022-12-08T10:29:39.675Z,3.70
2022-12-08T10:32:18.139Z,3.70
2022-12-08T10:35:13.448Z,3.70
2022-12-08T10:37:43.429Z,3.70
2022-12-08T10:40:21.419Z,3.80
2022-12-08T10:42:52.770Z,3.80
2022-12-08T10:45:33.564Z,3.90
2022-12-08T10:48:04.477Z,3.90
2022-12-08T10:50:52.811Z,3.90
2022-12-08T10:53:23.804Z,3.90
2022-12-08T10:56:00.470Z,3.90
2022-12-08T10:58:35.790Z,3.90
2022-12-08T11:01:18.521Z,3.80
2022-12-08T11:04:09.433Z,3.80
2022-12-08T11:06:47.611Z,3.80
2022-12-08T11:09:44.467Z,3.80
2022-12-08T11:12:15.918Z,3.70
2022-12-08T11:15:02.419Z,3.70
2022-12-08T11:17:39.352Z,3.70
2022-12-08T11:20:29.512Z,3.90
2022-12-08T11:22:59.260Z,4.00
2022-12-08T11:25:35.378Z,4.10
2022-12-08T11:28:12.094Z,4.20
2022-12-08T11:30:54.451Z,4.30
2022-12-08T11:33:25.137Z,4.40
2022-12-08T11:36:04.608Z,4.60
2022-12-08T11:38:36.321Z,4.60
2022-12-08T11:41:16.647Z,4.60
2022-12-08T11:43:52.215Z,4.70
2022-12-08T11:46:31.609Z,4.70
2022-12-08T11:49:06.807Z,4.80
2022-12-08T11:51:44.526Z,4.80
2022-12-08T11:54:23.694Z,4.80
2022-12-08T11:57:02.616Z,4.80
2022-12-08T11:59:34.351Z,4.70
2022-12-08T12:02:10.568Z,4.70
2022-12-08T12:04:50.941Z,4.70
2022-12-08T12:08:01.512Z,4.70
2022-12-08T12:10:43.435Z,4.80
2022-12-08T12:13:35.667Z,4.70
2022-12-08T12:16:42.065Z,4.80
2022-12-08T12:19:22.516Z,4.80
2022-12-08T12:21:54.560Z,4.80
2022-12-08T12:24:35.752Z,4.80
2022-12-08T12:27:09.353Z,4.80
2022-12-08T12:29:52.274Z,4.80
2022-12-08T12:32:25.991Z,4.90
2022-12-08T12:35:05.655Z,4.90
2022-12-08T12:37:40.724Z,4.90
2022-12-08T12:40:25.677Z,4.80
2022-12-08T12:43:23.573Z,4.80
2022-12-08T12:46:46.653Z,4.80
2022-12-08T12:50:07.385Z,4.80
2022-12-08T12:52:50.506Z,4.80
2022-12-08T12:55:52.487Z,4.70
2022-12-08T12:58:47.526Z,4.70
2022-12-08T13:01:45.703Z,4.70
2022-12-08T13:04:20.687Z,4.70
2022-12-08T13:06:58.151Z,4.70
2022-12-08T13:09:42.503Z,4.70
2022-12-08T13:12:13.707Z,4.70
2022-12-08T13:14:55.666Z,4.70
2022-12-08T13:17:30.382Z,4.70
2022-12-08T13:20:07.922Z,4.80
2022-12-08T13:23:09.208Z,4.70
2022-12-08T13:26:17.520Z,4.70
2022-12-08T13:29:13.574Z,4.80
2022-12-08T13:31:49.779Z,4.80
2022-12-08T13:34:33.593Z,4.80
2022-12-08T13:37:22.285Z,4.80
2022-12-08T13:40:01.739Z,4.90
2022-12-08T13:42:38.353Z,4.90
2022-12-08T13:48:35.110Z,4.90
2022-12-08T13:57:26.844Z,4.90
2022-12-08T13:59:56.520Z,4.80
2022-12-08T14:02:40.795Z,4.90
2022-12-08T14:09:02.268Z,4.80
2022-12-08T14:11:35.510Z,4.80
2022-12-08T14:14:14.535Z,4.80
2022-12-08T14:16:53.767Z,4.80
2022-12-08T14:19:31.582Z,4.70
2022-12-08T14:22:01.967Z,4.70
2022-12-08T14:24:38.615Z,4.70
2022-12-08T14:27:10.325Z,4.70
2022-12-08T14:29:51.853Z,4.70
2022-12-08T14:32:35.297Z,4.60
2022-12-08T14:35:23.641Z,4.60
2022-12-08T14:37:55.371Z,4.50
2022-12-08T14:40:35.611Z,4.30
2022-12-08T14:43:19.564Z,4.30
2022-12-08T14:45:59.796Z,4.10
2022-12-08T14:48:41.147Z,4.00
2022-12-08T14:51:23.793Z,3.90
2022-12-08T14:53:56.697Z,3.80
2022-12-08T14:56:36.723Z,3.70
2022-12-08T14:59:09.059Z,3.70
2022-12-08T15:01:44.855Z,3.60
2022-12-08T15:04:34.840Z,3.50
2022-12-08T15:07:08.672Z,3.40
2022-12-08T15:09:45.698Z,3.40
2022-12-08T15:12:27.422Z,3.40
2022-12-08T15:15:04.722Z,3.30
2022-12-08T15:17:36.672Z,3.30
2022-12-08T15:20:13.978Z,3.20
2022-12-08T15:22:42.443Z,3.20
2022-12-08T15:25:20.854Z,3.20
2022-12-08T15:27:59.700Z,3.20
2022-12-08T15:30:29.047Z,3.20
2022-12-08T15:33:03.700Z,3.20
2022-12-08T15:35:37.252Z,3.20
2022-12-08T15:38:18.664Z,3.10
2022-12-08T15:40:55.807Z,3.10
2022-12-08T15:43:25.672Z,3.10
2022-12-08T15:46:01.628Z,3.20
2022-12-08T15:48:31.160Z,3.10
2022-12-08T15:51:06.834Z,3.10
2022-12-08T15:53:35.670Z,3.10
2022-12-08T15:56:31.226Z,3.10
2022-12-08T15:59:04.776Z,3.10
2022-12-08T16:01:39.850Z,3.10
2022-12-08T16:05:25.345Z,3.10
2022-12-08T16:07:32.196Z,3.00
2022-12-08T16:10:03.351Z,3.00
2022-12-08T16:15:58.580Z,3.00
2022-12-08T16:18:36.724Z,3.00
2022-12-08T16:21:19.031Z,2.90
2022-12-08T16:24:06.009Z,2.90
2022-12-08T16:27:42.351Z,2.90
2022-12-08T16:29:32.677Z,2.90
2022-12-08T16:32:02.362Z,2.90
2022-12-08T16:34:38.945Z,2.90
2022-12-08T16:37:08.237Z,2.90
2022-12-08T16:39:46.204Z,2.90
2022-12-08T16:42:33.304Z,2.90
2022-12-08T16:45:10.868Z,2.90
2022-12-08T16:47:42.388Z,2.90
2022-12-08T16:50:19.718Z,3.00
2022-12-08T16:52:48.941Z,3.00
2022-12-08T16:55:25.758Z,3.10
2022-12-08T16:57:54.411Z,3.00
2022-12-08T17:00:34.727Z,3.00
2022-12-08T17:03:05.290Z,3.10
2022-12-08T17:05:47.953Z,3.10
2022-12-08T17:08:23.250Z,3.10
2022-12-08T17:11:13.766Z,3.10
2022-12-08T17:13:43.361Z,3.10
2022-12-08T17:16:21.965Z,3.10
2022-12-08T17:18:53.658Z,3.10
2022-12-08T17:21:28.808Z,3.10
2022-12-08T17:23:57.466Z,3.00
2022-12-08T17:26:32.761Z,3.00
2022-12-08T17:29:02.378Z,3.00
2022-12-08T17:31:38.152Z,2.90
2022-12-08T17:34:10.414Z,2.90
2022-12-08T17:36:45.722Z,3.00
2022-12-08T17:39:18.257Z,3.00
2022-12-08T17:41:54.805Z,3.00
2022-12-08T17:44:24.066Z,3.00
2022-12-08T17:46:59.930Z,3.00
2022-12-08T17:49:31.228Z,3.00
2022-12-08T17:52:20.931Z,2.90
2022-12-08T17:54:56.143Z,2.90
2022-12-08T17:57:30.949Z,3.00
2022-12-08T18:00:05.981Z,3.00
2022-12-08T18:02:35.905Z,3.00
2022-12-08T18:05:18.817Z,3.00
2022-12-08T18:07:54.080Z,3.00
2022-12-08T18:10:29.835Z,3.00
2022-12-08T18:12:58.615Z,3.00
2022-12-08T18:15:39.215Z,3.00
2022-12-08T18:18:08.170Z,3.00
2022-12-08T18:20:46.952Z,2.90
2022-12-08T18:23:15.274Z,2.90
2022-12-08T18:25:50.778Z,2.80
2022-12-08T18:28:19.100Z,2.80
2022-12-08T18:30:54.234Z,2.70
2022-12-08T18:33:23.822Z,2.70
2022-12-08T18:36:00.924Z,2.70
2022-12-08T18:38:29.130Z,2.60
2022-12-08T18:41:11.029Z,2.60
2022-12-08T18:43:40.828Z,2.60
2022-12-08T18:46:17.810Z,2.50
2022-12-08T18:48:47.968Z,2.50
2022-12-08T18:51:26.994Z,2.40
2022-12-08T18:53:55.578Z,2.40
2022-12-08T18:56:32.811Z,2.40
2022-12-08T18:59:03.786Z,2.40
2022-12-08T19:01:40.896Z,2.30
2022-12-08T19:04:29.433Z,2.30
2022-12-08T19:07:05.833Z,2.30
2022-12-08T19:09:35.315Z,2.30
2022-12-08T19:12:10.991Z,2.20
2022-12-08T19:14:39.342Z,2.20
2022-12-08T19:17:14.983Z,2.20
2022-12-08T19:19:43.547Z,2.10
2022-12-08T19:22:20.877Z,2.10
2022-12-08T19:24:49.142Z,2.10
2022-12-08T19:27:24.861Z,2.10
2022-12-08T19:29:53.529Z,2.10
2022-12-08T19:32:28.849Z,2.20
2022-12-08T19:34:57.352Z,2.10
2022-12-08T19:37:33.875Z,2.10
2022-12-08T19:40:19.244Z,2.10
2022-12-08T19:43:14.317Z,2.00
2022-12-08T19:45:43.587Z,2.00
2022-12-08T19:48:20.945Z,2.00
2022-12-08T19:50:49.574Z,2.00
2022-12-08T19:53:26.046Z,2.00
2022-12-08T19:55:54.493Z,1.90
2022-12-08T19:58:29.896Z,1.90
2022-12-08T20:00:58.535Z,1.90
2022-12-08T20:03:32.942Z,1.90
2022-12-08T20:06:07.957Z,1.80
2022-12-08T20:08:50.199Z,1.80
2022-12-08T20:11:19.220Z,1.80
2022-12-08T20:13:55.062Z,1.80
2022-12-08T20:16:24.437Z,1.80
2022-12-08T20:18:59.063Z,1.80
2022-12-08T20:21:28.040Z,1.80
2022-12-08T20:24:04.078Z,1.80
2022-12-08T20:26:32.551Z,1.80
2022-12-08T20:29:08.055Z,1.70
2022-12-08T20:31:36.544Z,1.70
2022-12-08T20:34:12.081Z,1.70
2022-12-08T20:36:43.220Z,1.70
2022-12-08T20:39:22.094Z,1.70
2022-12-08T20:42:00.923Z,1.70
2022-12-08T20:44:32.191Z,1.70
2022-12-08T20:47:08.941Z,1.80
2022-12-08T20:49:37.845Z,1.80
2022-12-08T20:52:12.990Z,1.80
2022-12-08T20:54:43.159Z,1.80
2022-12-08T20:57:17.999Z,1.80
2022-12-08T20:59:46.349Z,1.80
2022-12-08T21:02:22.152Z,1.80
2022-12-08T21:04:57.550Z,1.80
2022-12-08T21:07:39.910Z,1.90
2022-12-08T21:10:11.988Z,1.80
2022-12-08T21:12:47.938Z,1.90
2022-12-08T21:15:16.748Z,1.90
2022-12-08T21:17:54.053Z,1.90
2022-12-08T21:20:23.113Z,1.90
2022-12-08T21:22:59.372Z,1.90
2022-12-08T21:25:29.771Z,1.90
2022-12-08T21:28:04.992Z,1.90
2022-12-08T21:30:33.378Z,1.90
2022-12-08T21:33:08.304Z,1.80
2022-12-08T21:35:37.241Z,1.80
2022-12-08T21:38:13.071Z,1.80
2022-12-08T21:40:42.995Z,1.70
2022-12-08T21:43:18.108Z,1.70
2022-12-08T21:45:46.717Z,1.70
2022-12-08T21:48:24.016Z,1.60
2022-12-08T21:50:54.104Z,1.60
2022-12-08T21:53:29.954Z,1.60
2022-12-08T21:55:59.819Z,1.50
2022-12-08T21:58:35.058Z,1.40
2022-12-08T22:01:07.449Z,1.40
2022-12-08T22:03:42.118Z,1.40
2022-12-08T22:06:19.742Z,1.40
2022-12-08T22:09:03.234Z,1.40
2022-12-08T22:11:33.696Z,1.30
2022-12-08T22:14:14.153Z,1.30
2022-12-08T22:16:43.977Z,1.30
2022-12-08T22:19:18.993Z,1.30
2022-12-08T22:21:47.712Z,1.30
2022-12-08T22:24:23.370Z,1.30
2022-12-08T22:26:54.569Z,1.40
2022-12-08T22:29:30.052Z,1.40
2022-12-08T22:31:59.665Z,1.20
2022-12-08T22:34:35.024Z,1.20
2022-12-08T22:37:03.597Z,1.30
2022-12-08T22:39:39.246Z,1.30
2022-12-08T22:42:09.368Z,1.30
2022-12-08T22:44:45.044Z,1.30
2022-12-08T22:47:13.943Z,1.30
2022-12-08T22:49:49.042Z,1.30
2022-12-08T22:52:17.696Z,1.30
2022-12-08T22:54:53.053Z,1.30
2022-12-08T22:57:22.972Z,1.20
2022-12-08T22:59:58.102Z,1.20
2022-12-08T23:02:26.667Z,1.20
2022-12-08T23:05:05.576Z,1.20
2022-12-08T23:07:40.747Z,1.20
2022-12-08T23:10:17.062Z,1.30
2022-12-08T23:12:46.708Z,1.20
2022-12-08T23:15:22.250Z,1.30
2022-12-08T23:17:50.547Z,1.20
2022-12-08T23:20:25.288Z,1.20
2022-12-08T23:22:55.258Z,1.20
2022-12-08T23:25:30.365Z,1.20
2022-12-08T23:28:00.296Z,1.20
2022-12-08T23:30:35.393Z,1.20
2022-12-08T23:33:03.769Z,1.20
2022-12-08T23:35:39.120Z,1.20
2022-12-08T23:38:08.003Z,1.20
2022-12-08T23:40:43.253Z,1.20
2022-12-08T23:43:13.288Z,1.20
2022-12-08T23:45:48.306Z,1.20
2022-12-08T23:48:17.216Z,1.10
2022-12-08T23:50:52.705Z,1.10
2022-12-08T23:53:21.222Z,1.10
2022-12-08T23:55:56.131Z,1.00
2022-12-08T23:58:26.349Z,1.10
